sensor_id;sensor_type;location;lat;lon;timestamp;pressure;altitude;pressure_sealevel;temperature;humidity
39197;BME280;42889;51.112;13.772;2022-09-03T00:02:08;99345.47;;;12.12;79.09
39197;BME280;42889;51.112;13.772;2022-09-03T00:04:48;99341.09;;;12.11;80.45
39197;BME280;42889;51.112;13.772;2022-09-03T00:07:38;99338.69;;;12.08;81.30
39197;BME280;42889;51.112;13.772;2022-09-03T00:10:15;99337.34;;;12.04;81.45
39197;BME280;42889;51.112;13.772;2022-09-03T00:12:44;99338.00;;;11.98;81.13
39197;BME280;42889;51.112;13.772;2022-09-03T00:15:22;99335.97;;;12.00;80.78
39197;BME280;42889;51.112;13.772;2022-09-03T00:18:06;99334.66;;;12.12;80.59
39197;BME280;42889;51.112;13.772;2022-09-03T00:20:41;99329.97;;;12.23;77.88
39197;BME280;42889;51.112;13.772;2022-09-03T00:23:15;99321.72;;;12.24;78.38
39197;BME280;42889;51.112;13.772;2022-09-03T00:28:50;99320.69;;;12.09;80.83
39197;BME280;42889;51.112;13.772;2022-09-03T00:31:28;99314.09;;;12.11;79.73
39197;BME280;42889;51.112;13.772;2022-09-03T00:34:01;99317.03;;;11.84;83.12
39197;BME280;42889;51.112;13.772;2022-09-03T00:36:34;99310.88;;;11.66;83.54
39197;BME280;42889;51.112;13.772;2022-09-03T00:39:15;99314.53;;;11.56;84.05
39197;BME280;42889;51.112;13.772;2022-09-03T00:45:11;99308.03;;;11.41;86.42
39197;BME280;42889;51.112;13.772;2022-09-03T00:47:53;99300.50;;;11.19;85.64
39197;BME280;42889;51.112;13.772;2022-09-03T00:50:44;99303.47;;;11.07;86.20
39197;BME280;42889;51.112;13.772;2022-09-03T01:04:17;99301.31;;;10.67;88.75
39197;BME280;42889;51.112;13.772;2022-09-03T01:10:03;99292.69;;;10.64;91.67
39197;BME280;42889;51.112;13.772;2022-09-03T01:12:51;99295.63;;;10.52;91.10
39197;BME280;42889;51.112;13.772;2022-09-03T01:15:31;99300.41;;;10.41;92.14
39197;BME280;42889;51.112;13.772;2022-09-03T01:32:16;99306.00;;;10.47;92.13
39197;BME280;42889;51.112;13.772;2022-09-03T01:37:53;99302.88;;;10.34;92.92
39197;BME280;42889;51.112;13.772;2022-09-03T01:43:40;99311.34;;;10.12;93.08
39197;BME280;42889;51.112;13.772;2022-09-03T01:46:18;99319.88;;;10.07;93.16
39197;BME280;42889;51.112;13.772;2022-09-03T01:51:36;99319.25;;;10.41;90.67
39197;BME280;42889;51.112;13.772;2022-09-03T01:54:35;99316.31;;;10.52;90.04
39197;BME280;42889;51.112;13.772;2022-09-03T02:00:13;99322.31;;;10.46;92.40
39197;BME280;42889;51.112;13.772;2022-09-03T02:02:42;99324.16;;;10.45;91.21
39197;BME280;42889;51.112;13.772;2022-09-03T02:05:13;99319.06;;;10.42;90.69
39197;BME280;42889;51.112;13.772;2022-09-03T02:07:44;99316.81;;;10.20;92.06
39197;BME280;42889;51.112;13.772;2022-09-03T02:10:18;99311.59;;;10.18;92.88
39197;BME280;42889;51.112;13.772;2022-09-03T02:12:49;99307.44;;;10.06;93.69
39197;BME280;42889;51.112;13.772;2022-09-03T02:15:20;99294.50;;;10.10;94.48
39197;BME280;42889;51.112;13.772;2022-09-03T02:17:49;99310.28;;;10.22;92.84
39197;BME280;42889;51.112;13.772;2022-09-03T02:20:22;99304.66;;;10.16;94.70
39197;BME280;42889;51.112;13.772;2022-09-03T02:22:49;99304.53;;;10.17;91.92
39197;BME280;42889;51.112;13.772;2022-09-03T02:25:16;99315.28;;;10.17;91.36
39197;BME280;42889;51.112;13.772;2022-09-03T02:27:44;99307.94;;;10.10;93.18
39197;BME280;42889;51.112;13.772;2022-09-03T02:30:11;99301.88;;;10.08;93.91
39197;BME280;42889;51.112;13.772;2022-09-03T02:32:37;99303.34;;;10.20;93.44
39197;BME280;42889;51.112;13.772;2022-09-03T02:35:04;99304.34;;;10.19;93.75
39197;BME280;42889;51.112;13.772;2022-09-03T02:37:32;99303.81;;;10.15;91.49
39197;BME280;42889;51.112;13.772;2022-09-03T02:39:58;99310.88;;;10.16;93.84
39197;BME280;42889;51.112;13.772;2022-09-03T02:42:25;99310.09;;;10.34;91.46
39197;BME280;42889;51.112;13.772;2022-09-03T02:44:56;99309.03;;;10.44;92.28
39197;BME280;42889;51.112;13.772;2022-09-03T02:47:30;99304.88;;;10.50;92.57
39197;BME280;42889;51.112;13.772;2022-09-03T02:49:57;99305.38;;;10.53;91.14
39197;BME280;42889;51.112;13.772;2022-09-03T02:52:24;99302.22;;;10.76;90.01
39197;BME280;42889;51.112;13.772;2022-09-03T02:54:50;99303.94;;;10.77;90.47
39197;BME280;42889;51.112;13.772;2022-09-03T02:57:17;99303.94;;;10.77;90.69
39197;BME280;42889;51.112;13.772;2022-09-03T02:59:52;99305.44;;;10.79;88.62
39197;BME280;42889;51.112;13.772;2022-09-03T03:02:19;99305.22;;;10.73;87.73
39197;BME280;42889;51.112;13.772;2022-09-03T03:04:45;99304.94;;;10.58;90.16
39197;BME280;42889;51.112;13.772;2022-09-03T03:07:12;99298.69;;;10.58;89.53
39197;BME280;42889;51.112;13.772;2022-09-03T03:09:38;99295.25;;;10.47;92.09
39197;BME280;42889;51.112;13.772;2022-09-03T03:12:05;99302.03;;;10.51;90.93
39197;BME280;42889;51.112;13.772;2022-09-03T03:14:32;99299.38;;;10.60;90.85
39197;BME280;42889;51.112;13.772;2022-09-03T03:16:59;99299.25;;;10.43;90.42
39197;BME280;42889;51.112;13.772;2022-09-03T03:19:25;99292.56;;;10.47;90.12
39197;BME280;42889;51.112;13.772;2022-09-03T03:21:52;99286.25;;;10.57;88.90
39197;BME280;42889;51.112;13.772;2022-09-03T03:24:19;99284.47;;;10.47;90.56
39197;BME280;42889;51.112;13.772;2022-09-03T03:26:45;99285.50;;;10.28;92.75
39197;BME280;42889;51.112;13.772;2022-09-03T03:29:16;99302.81;;;10.16;93.10
39197;BME280;42889;51.112;13.772;2022-09-03T03:31:43;99288.88;;;10.31;90.83
39197;BME280;42889;51.112;13.772;2022-09-03T03:34:09;99292.53;;;10.12;92.58
39197;BME280;42889;51.112;13.772;2022-09-03T03:36:36;99296.28;;;10.19;91.04
39197;BME280;42889;51.112;13.772;2022-09-03T03:39:02;99295.00;;;10.23;91.02
39197;BME280;42889;51.112;13.772;2022-09-03T03:41:31;99297.56;;;10.24;91.51
39197;BME280;42889;51.112;13.772;2022-09-03T03:44:00;99297.97;;;10.20;93.02
39197;BME280;42889;51.112;13.772;2022-09-03T03:46:30;99300.81;;;10.00;93.95
39197;BME280;42889;51.112;13.772;2022-09-03T03:48:57;99296.50;;;9.90;93.01
39197;BME280;42889;51.112;13.772;2022-09-03T03:51:25;99301.06;;;9.80;94.47
39197;BME280;42889;51.112;13.772;2022-09-03T03:53:55;99302.56;;;9.92;93.81
39197;BME280;42889;51.112;13.772;2022-09-03T03:56:25;99300.34;;;9.77;94.44
39197;BME280;42889;51.112;13.772;2022-09-03T03:58:53;99298.00;;;9.74;96.02
39197;BME280;42889;51.112;13.772;2022-09-03T04:01:22;99302.25;;;9.95;93.81
39197;BME280;42889;51.112;13.772;2022-09-03T04:03:49;99304.66;;;9.70;94.93
39197;BME280;42889;51.112;13.772;2022-09-03T04:06:18;99303.53;;;9.73;96.02
39197;BME280;42889;51.112;13.772;2022-09-03T04:08:47;99298.97;;;9.46;96.85
39197;BME280;42889;51.112;13.772;2022-09-03T04:11:17;99293.91;;;9.33;98.40
39197;BME280;42889;51.112;13.772;2022-09-03T04:13:45;99289.88;;;9.19;100.00
39197;BME280;42889;51.112;13.772;2022-09-03T04:16:23;99288.06;;;9.10;100.00
39197;BME280;42889;51.112;13.772;2022-09-03T04:18:52;99291.06;;;9.07;100.00
39197;BME280;42889;51.112;13.772;2022-09-03T04:21:22;99285.97;;;8.94;100.00
39197;BME280;42889;51.112;13.772;2022-09-03T04:23:49;99284.59;;;8.90;100.00
39197;BME280;42889;51.112;13.772;2022-09-03T04:26:19;99289.56;;;8.85;100.00
39197;BME280;42889;51.112;13.772;2022-09-03T04:28:46;99279.66;;;8.86;100.00
39197;BME280;42889;51.112;13.772;2022-09-03T04:31:15;99277.81;;;8.86;100.00
39197;BME280;42889;51.112;13.772;2022-09-03T04:33:42;99280.06;;;8.91;100.00
39197;BME280;42889;51.112;13.772;2022-09-03T04:36:17;99278.34;;;8.90;100.00
39197;BME280;42889;51.112;13.772;2022-09-03T04:38:46;99287.06;;;9.11;100.00
39197;BME280;42889;51.112;13.772;2022-09-03T04:41:15;99285.81;;;9.06;100.00
39197;BME280;42889;51.112;13.772;2022-09-03T04:43:42;99284.50;;;9.19;100.00
39197;BME280;42889;51.112;13.772;2022-09-03T04:46:10;99281.19;;;8.98;100.00
39197;BME280;42889;51.112;13.772;2022-09-03T04:48:47;99286.38;;;9.09;100.00
39197;BME280;42889;51.112;13.772;2022-09-03T04:51:15;99277.97;;;9.32;99.04
39197;BME280;42889;51.112;13.772;2022-09-03T04:53:44;99290.28;;;9.24;99.04
39197;BME280;42889;51.112;13.772;2022-09-03T04:58:40;99294.50;;;9.27;99.25
39197;BME280;42889;51.112;13.772;2022-09-03T05:01:10;99295.81;;;9.23;99.08
39197;BME280;42889;51.112;13.772;2022-09-03T05:03:38;99304.66;;;9.33;98.67
39197;BME280;42889;51.112;13.772;2022-09-03T05:06:04;99305.19;;;9.46;97.76
39197;BME280;42889;51.112;13.772;2022-09-03T05:08:32;99306.06;;;9.37;97.92
39197;BME280;42889;51.112;13.772;2022-09-03T05:11:03;99308.16;;;9.43;98.04
39197;BME280;42889;51.112;13.772;2022-09-03T05:13:31;99300.22;;;9.52;97.66
39197;BME280;42889;51.112;13.772;2022-09-03T05:16:04;99300.31;;;9.60;96.90
39197;BME280;42889;51.112;13.772;2022-09-03T05:18:32;99302.41;;;9.66;97.55
39197;BME280;42889;51.112;13.772;2022-09-03T05:21:11;99295.13;;;9.76;98.35
39197;BME280;42889;51.112;13.772;2022-09-03T05:23:40;99292.44;;;9.76;98.89
39197;BME280;42889;51.112;13.772;2022-09-03T05:26:10;99295.75;;;9.70;99.06
39197;BME280;42889;51.112;13.772;2022-09-03T05:28:39;99293.75;;;9.72;98.50
39197;BME280;42889;51.112;13.772;2022-09-03T05:31:07;99291.59;;;9.75;98.60
39197;BME280;42889;51.112;13.772;2022-09-03T05:33:42;99288.63;;;9.79;99.05
39197;BME280;42889;51.112;13.772;2022-09-03T05:36:13;99279.47;;;9.71;100.00
39197;BME280;42889;51.112;13.772;2022-09-03T05:38:42;99278.72;;;9.79;100.00
39197;BME280;42889;51.112;13.772;2022-09-03T05:41:10;99281.66;;;9.86;100.00
39197;BME280;42889;51.112;13.772;2022-09-03T05:43:38;99288.34;;;9.99;100.00
39197;BME280;42889;51.112;13.772;2022-09-03T05:46:07;99289.34;;;10.16;98.32
39197;BME280;42889;51.112;13.772;2022-09-03T05:48:36;99297.94;;;10.29;97.25
39197;BME280;42889;51.112;13.772;2022-09-03T05:51:05;99295.31;;;10.38;95.68
39197;BME280;42889;51.112;13.772;2022-09-03T05:53:35;99286.56;;;10.53;94.88
39197;BME280;42889;51.112;13.772;2022-09-03T05:56:04;99291.56;;;10.66;93.34
39197;BME280;42889;51.112;13.772;2022-09-03T05:58:37;99288.66;;;10.86;90.21
39197;BME280;42889;51.112;13.772;2022-09-03T06:03:36;99291.09;;;11.23;87.07
39197;BME280;42889;51.112;13.772;2022-09-03T06:06:02;99295.69;;;11.30;89.06
39197;BME280;42889;51.112;13.772;2022-09-03T06:08:30;99287.22;;;11.51;83.87
39197;BME280;42889;51.112;13.772;2022-09-03T06:10:58;99291.66;;;11.69;82.88
39197;BME280;42889;51.112;13.772;2022-09-03T06:13:25;99295.31;;;11.85;80.10
39197;BME280;42889;51.112;13.772;2022-09-03T06:16:00;99289.44;;;11.90;79.34
39197;BME280;42889;51.112;13.772;2022-09-03T06:18:27;99301.94;;;12.07;80.81
39197;BME280;42889;51.112;13.772;2022-09-03T06:20:55;99296.72;;;12.14;79.65
39197;BME280;42889;51.112;13.772;2022-09-03T06:23:23;99300.16;;;12.32;78.04
39197;BME280;42889;51.112;13.772;2022-09-03T06:28:39;99312.00;;;12.48;80.19
39197;BME280;42889;51.112;13.772;2022-09-03T06:31:07;99309.31;;;12.48;78.76
39197;BME280;42889;51.112;13.772;2022-09-03T06:33:36;99306.44;;;12.65;76.13
39197;BME280;42889;51.112;13.772;2022-09-03T06:36:05;99315.38;;;12.82;75.82
39197;BME280;42889;51.112;13.772;2022-09-03T06:38:35;99315.03;;;13.02;75.93
39197;BME280;42889;51.112;13.772;2022-09-03T06:41:11;99318.56;;;13.18;72.12
39197;BME280;42889;51.112;13.772;2022-09-03T06:43:40;99314.84;;;13.28;75.28
39197;BME280;42889;51.112;13.772;2022-09-03T06:46:08;99320.59;;;13.41;73.89
39197;BME280;42889;51.112;13.772;2022-09-03T06:48:36;99316.34;;;13.47;70.35
39197;BME280;42889;51.112;13.772;2022-09-03T06:51:06;99313.81;;;13.45;75.82
39197;BME280;42889;51.112;13.772;2022-09-03T06:53:35;99305.69;;;13.53;73.97
39197;BME280;42889;51.112;13.772;2022-09-03T06:56:14;99309.72;;;13.57;74.84
39197;BME280;42889;51.112;13.772;2022-09-03T06:58:43;99306.31;;;13.63;75.38
39197;BME280;42889;51.112;13.772;2022-09-03T07:01:13;99302.53;;;13.81;73.69
39197;BME280;42889;51.112;13.772;2022-09-03T07:03:42;99307.09;;;14.11;69.41
39197;BME280;42889;51.112;13.772;2022-09-03T07:06:13;99305.34;;;14.27;69.42
39197;BME280;42889;51.112;13.772;2022-09-03T07:08:39;99302.34;;;14.44;69.24
39197;BME280;42889;51.112;13.772;2022-09-03T07:11:13;99295.34;;;14.58;68.52
39197;BME280;42889;51.112;13.772;2022-09-03T07:13:42;99299.25;;;14.79;67.75
39197;BME280;42889;51.112;13.772;2022-09-03T07:16:15;99302.91;;;14.86;69.04
39197;BME280;42889;51.112;13.772;2022-09-03T07:18:43;99298.28;;;14.94;65.07
39197;BME280;42889;51.112;13.772;2022-09-03T07:21:12;99293.31;;;14.98;65.76
39197;BME280;42889;51.112;13.772;2022-09-03T07:23:40;99295.56;;;14.94;65.09
39197;BME280;42889;51.112;13.772;2022-09-03T07:26:10;99293.72;;;15.10;65.54
39197;BME280;42889;51.112;13.772;2022-09-03T07:28:38;99287.19;;;15.19;65.20
39197;BME280;42889;51.112;13.772;2022-09-03T07:31:10;99289.34;;;15.23;66.75
39197;BME280;42889;51.112;13.772;2022-09-03T07:33:38;99290.38;;;15.37;65.27
39197;BME280;42889;51.112;13.772;2022-09-03T07:36:09;99281.31;;;15.60;66.04
39197;BME280;42889;51.112;13.772;2022-09-03T07:38:36;99278.53;;;15.83;63.80
39197;BME280;42889;51.112;13.772;2022-09-03T07:41:06;99279.88;;;16.08;58.82
39197;BME280;42889;51.112;13.772;2022-09-03T07:43:39;99278.53;;;16.19;60.42
39197;BME280;42889;51.112;13.772;2022-09-03T07:46:06;99274.22;;;16.24;61.18
39197;BME280;42889;51.112;13.772;2022-09-03T07:48:34;99273.19;;;16.25;61.55
39197;BME280;42889;51.112;13.772;2022-09-03T07:51:03;99262.81;;;16.50;60.69
39197;BME280;42889;51.112;13.772;2022-09-03T07:53:30;99265.97;;;16.75;61.14
39197;BME280;42889;51.112;13.772;2022-09-03T07:56:08;99273.09;;;17.60;57.01
39197;BME280;42889;51.112;13.772;2022-09-03T07:58:38;99274.50;;;18.46;53.34
39197;BME280;42889;51.112;13.772;2022-09-03T08:01:11;99274.72;;;19.50;51.32
39197;BME280;42889;51.112;13.772;2022-09-03T08:03:43;99271.06;;;20.41;47.26
39197;BME280;42889;51.112;13.772;2022-09-03T08:06:11;99278.69;;;20.95;45.89
39197;BME280;42889;51.112;13.772;2022-09-03T08:08:38;99282.75;;;21.43;42.17
39197;BME280;42889;51.112;13.772;2022-09-03T08:11:07;99280.31;;;22.08;42.63
39197;BME280;42889;51.112;13.772;2022-09-03T08:13:39;99272.97;;;23.22;41.30
39197;BME280;42889;51.112;13.772;2022-09-03T08:16:07;99276.31;;;23.83;38.22
39197;BME280;42889;51.112;13.772;2022-09-03T08:18:35;99276.53;;;23.11;41.22
39197;BME280;42889;51.112;13.772;2022-09-03T08:21:06;99276.50;;;22.87;40.65
39197;BME280;42889;51.112;13.772;2022-09-03T08:23:36;99271.19;;;23.75;39.75
39197;BME280;42889;51.112;13.772;2022-09-03T08:26:04;99272.91;;;24.44;37.59
39197;BME280;42889;51.112;13.772;2022-09-03T08:28:37;99266.41;;;24.62;37.49
39197;BME280;42889;51.112;13.772;2022-09-03T08:33:42;99282.31;;;22.01;40.85
39197;BME280;42889;51.112;13.772;2022-09-03T08:36:24;99270.53;;;22.49;40.76
39197;BME280;42889;51.112;13.772;2022-09-03T08:38:52;99266.50;;;23.05;39.82
39197;BME280;42889;51.112;13.772;2022-09-03T08:44:13;99269.84;;;22.35;40.34
39197;BME280;42889;51.112;13.772;2022-09-03T08:46:59;99271.41;;;21.57;39.73
39197;BME280;42889;51.112;13.772;2022-09-03T08:49:30;99261.28;;;20.90;43.53
39197;BME280;42889;51.112;13.772;2022-09-03T08:52:02;99274.09;;;20.64;44.37
39197;BME280;42889;51.112;13.772;2022-09-03T08:54:32;99269.09;;;20.55;43.97
39197;BME280;42889;51.112;13.772;2022-09-03T08:57:01;99257.63;;;20.33;44.59
39197;BME280;42889;51.112;13.772;2022-09-03T08:59:31;99263.72;;;19.96;46.26
39197;BME280;42889;51.112;13.772;2022-09-03T09:07:49;99251.06;;;20.02;43.64
39197;BME280;42889;51.112;13.772;2022-09-03T09:10:39;99251.72;;;19.97;42.90
39197;BME280;42889;51.112;13.772;2022-09-03T09:15:49;99241.41;;;19.99;41.96
39197;BME280;42889;51.112;13.772;2022-09-03T09:21:19;99242.50;;;20.68;44.04
39197;BME280;42889;51.112;13.772;2022-09-03T09:24:05;99245.84;;;21.20;44.68
39197;BME280;42889;51.112;13.772;2022-09-03T09:26:40;99249.25;;;22.32;40.83
39197;BME280;42889;51.112;13.772;2022-09-03T09:29:08;99236.06;;;23.53;37.28
39197;BME280;42889;51.112;13.772;2022-09-03T09:31:39;99229.06;;;24.38;37.94
39197;BME280;42889;51.112;13.772;2022-09-03T09:34:10;99232.84;;;25.66;34.91
39197;BME280;42889;51.112;13.772;2022-09-03T09:36:48;99238.19;;;25.95;31.60
39197;BME280;42889;51.112;13.772;2022-09-03T09:39:15;99238.19;;;26.17;30.46
39197;BME280;42889;51.112;13.772;2022-09-03T09:41:57;99229.31;;;26.96;30.50
39197;BME280;42889;51.112;13.772;2022-09-03T09:44:25;99231.69;;;27.56;29.64
39197;BME280;42889;51.112;13.772;2022-09-03T09:47:01;99229.56;;;27.64;30.71
39197;BME280;42889;51.112;13.772;2022-09-03T09:49:33;99227.31;;;28.13;29.63
39197;BME280;42889;51.112;13.772;2022-09-03T09:52:04;99227.13;;;28.50;30.82
39197;BME280;42889;51.112;13.772;2022-09-03T09:54:32;99232.91;;;28.33;29.74
39197;BME280;42889;51.112;13.772;2022-09-03T09:57:03;99222.25;;;27.42;31.68
39197;BME280;42889;51.112;13.772;2022-09-03T09:59:33;99220.56;;;27.89;31.20
39197;BME280;42889;51.112;13.772;2022-09-03T10:02:10;99226.19;;;27.14;32.97
39197;BME280;42889;51.112;13.772;2022-09-03T10:04:48;99218.59;;;27.84;33.89
39197;BME280;42889;51.112;13.772;2022-09-03T10:07:23;99221.34;;;28.72;31.81
39197;BME280;42889;51.112;13.772;2022-09-03T10:10:19;99215.81;;;29.28;28.03
39197;BME280;42889;51.112;13.772;2022-09-03T10:13:05;99211.66;;;29.56;29.20
39197;BME280;42889;51.112;13.772;2022-09-03T10:16:03;99214.78;;;30.04;27.48
39197;BME280;42889;51.112;13.772;2022-09-03T10:19:23;99217.41;;;30.40;29.02
39197;BME280;42889;51.112;13.772;2022-09-03T10:21:38;99212.84;;;30.00;29.07
39197;BME280;42889;51.112;13.772;2022-09-03T10:26:42;99205.53;;;30.29;27.44
39197;BME280;42889;51.112;13.772;2022-09-03T10:29:18;99203.63;;;30.20;27.70
39197;BME280;42889;51.112;13.772;2022-09-03T10:32:06;99196.66;;;29.62;28.96
39197;BME280;42889;51.112;13.772;2022-09-03T10:37:54;99202.25;;;28.71;32.79
39197;BME280;42889;51.112;13.772;2022-09-03T10:46:10;99201.41;;;26.60;32.22
39197;BME280;42889;51.112;13.772;2022-09-03T10:54:38;99186.84;;;25.28;34.09
39197;BME280;42889;51.112;13.772;2022-09-03T11:07:47;99168.75;;;24.82;34.57
39197;BME280;42889;51.112;13.772;2022-09-03T11:10:24;99179.72;;;25.32;35.07
39197;BME280;42889;51.112;13.772;2022-09-03T11:15:26;99182.22;;;24.50;36.38
39197;BME280;42889;51.112;13.772;2022-09-03T11:18:00;99173.78;;;23.82;36.30
39197;BME280;42889;51.112;13.772;2022-09-03T11:20:29;99169.91;;;23.95;36.46
39197;BME280;42889;51.112;13.772;2022-09-03T11:23:00;99174.81;;;23.64;38.17
39197;BME280;42889;51.112;13.772;2022-09-03T11:25:35;99175.09;;;23.28;36.66
39197;BME280;42889;51.112;13.772;2022-09-03T11:34:13;99162.69;;;24.06;38.21
39197;BME280;42889;51.112;13.772;2022-09-03T11:36:49;99150.72;;;25.46;38.09
39197;BME280;42889;51.112;13.772;2022-09-03T11:39:34;99163.66;;;25.46;36.44
39197;BME280;42889;51.112;13.772;2022-09-03T11:42:04;99160.63;;;26.40;34.21
39197;BME280;42889;51.112;13.772;2022-09-03T11:44:35;99144.09;;;28.66;33.06
39197;BME280;42889;51.112;13.772;2022-09-03T11:47:22;99160.91;;;29.51;28.92
39197;BME280;42889;51.112;13.772;2022-09-03T11:49:51;99158.00;;;29.86;28.44
39197;BME280;42889;51.112;13.772;2022-09-03T11:52:26;99164.88;;;30.43;27.30
39197;BME280;42889;51.112;13.772;2022-09-03T11:54:54;99157.91;;;30.51;27.06
39197;BME280;42889;51.112;13.772;2022-09-03T11:57:31;99147.22;;;30.98;27.08
39197;BME280;42889;51.112;13.772;2022-09-03T12:00:12;99153.94;;;30.23;27.11
39197;BME280;42889;51.112;13.772;2022-09-03T12:02:45;99152.03;;;29.54;30.04
39197;BME280;42889;51.112;13.772;2022-09-03T12:05:26;99153.69;;;28.12;29.82
39197;BME280;42889;51.112;13.772;2022-09-03T12:10:50;99155.06;;;26.08;34.96
39197;BME280;42889;51.112;13.772;2022-09-03T12:16:39;99137.16;;;29.04;30.32
39197;BME280;42889;51.112;13.772;2022-09-03T12:19:49;99137.03;;;29.50;30.28
39197;BME280;42889;51.112;13.772;2022-09-03T12:22:18;99145.25;;;29.80;28.59
39197;BME280;42889;51.112;13.772;2022-09-03T12:24:45;99137.41;;;31.10;25.46
39197;BME280;42889;51.112;13.772;2022-09-03T12:27:22;99136.50;;;31.44;22.60
39197;BME280;42889;51.112;13.772;2022-09-03T12:29:57;99142.63;;;31.41;24.19
39197;BME280;42889;51.112;13.772;2022-09-03T12:32:29;99137.03;;;31.46;23.46
39197;BME280;42889;51.112;13.772;2022-09-03T12:35:08;99151.09;;;30.67;24.07
39197;BME280;42889;51.112;13.772;2022-09-03T12:37:36;99145.25;;;31.32;25.67
39197;BME280;42889;51.112;13.772;2022-09-03T12:40:26;99144.19;;;31.52;23.25
39197;BME280;42889;51.112;13.772;2022-09-03T12:42:55;99141.47;;;31.18;23.84
39197;BME280;42889;51.112;13.772;2022-09-03T12:45:57;99135.53;;;31.30;22.86
39197;BME280;42889;51.112;13.772;2022-09-03T12:48:55;99135.13;;;30.88;24.62
39197;BME280;42889;51.112;13.772;2022-09-03T12:51:42;99118.78;;;31.11;24.30
39197;BME280;42889;51.112;13.772;2022-09-03T12:54:18;99132.44;;;31.79;22.81
39197;BME280;42889;51.112;13.772;2022-09-03T12:56:50;99128.38;;;30.94;23.40
39197;BME280;42889;51.112;13.772;2022-09-03T12:59:20;99133.75;;;31.63;23.02
39197;BME280;42889;51.112;13.772;2022-09-03T13:01:53;99125.97;;;31.41;24.19
39197;BME280;42889;51.112;13.772;2022-09-03T13:04:28;99123.97;;;29.60;25.18
39197;BME280;42889;51.112;13.772;2022-09-03T13:07:07;99129.72;;;27.60;28.72
39197;BME280;42889;51.112;13.772;2022-09-03T13:09:38;99126.56;;;26.57;30.12
39197;BME280;42889;51.112;13.772;2022-09-03T13:12:19;99131.53;;;24.96;32.01
39197;BME280;42889;51.112;13.772;2022-09-03T13:14:47;99130.88;;;25.06;32.33
39197;BME280;42889;51.112;13.772;2022-09-03T13:17:47;99129.16;;;25.65;33.57
39197;BME280;42889;51.112;13.772;2022-09-03T13:20:34;99121.16;;;25.03;34.43
39197;BME280;42889;51.112;13.772;2022-09-03T13:25:56;99122.50;;;23.88;36.86
39197;BME280;42889;51.112;13.772;2022-09-03T13:31:49;99111.84;;;26.46;33.05
39197;BME280;42889;51.112;13.772;2022-09-03T13:34:25;99109.16;;;28.14;26.62
39197;BME280;42889;51.112;13.772;2022-09-03T13:37:08;99100.06;;;28.84;28.87
39197;BME280;42889;51.112;13.772;2022-09-03T13:39:45;99102.25;;;29.13;27.21
39197;BME280;42889;51.112;13.772;2022-09-03T13:42:18;99107.88;;;30.22;28.10
39197;BME280;42889;51.112;13.772;2022-09-03T13:44:59;99104.91;;;30.03;24.81
39197;BME280;42889;51.112;13.772;2022-09-03T13:48:08;99110.06;;;29.71;26.38
39197;BME280;42889;51.112;13.772;2022-09-03T13:51:21;99104.91;;;29.98;26.68
39197;BME280;42889;51.112;13.772;2022-09-03T13:54:02;99101.00;;;30.83;26.50
39197;BME280;42889;51.112;13.772;2022-09-03T14:04:43;99101.19;;;28.48;27.05
39197;BME280;42889;51.112;13.772;2022-09-03T14:07:43;99092.00;;;28.83;29.06
39197;BME280;42889;51.112;13.772;2022-09-03T14:10:33;99091.81;;;27.50;28.27
39197;BME280;42889;51.112;13.772;2022-09-03T14:13:12;99090.22;;;26.70;29.90
39197;BME280;42889;51.112;13.772;2022-09-03T14:16:12;99093.19;;;25.28;32.08
39197;BME280;42889;51.112;13.772;2022-09-03T14:18:53;99096.06;;;25.16;34.72
39197;BME280;42889;51.112;13.772;2022-09-03T14:21:27;99091.25;;;24.90;33.18
39197;BME280;42889;51.112;13.772;2022-09-03T14:24:35;99093.06;;;24.46;34.71
39197;BME280;42889;51.112;13.772;2022-09-03T14:27:00;99087.75;;;24.27;34.36
39197;BME280;42889;51.112;13.772;2022-09-03T14:29:29;99082.94;;;23.89;33.46
39197;BME280;42889;51.112;13.772;2022-09-03T14:40:18;99088.66;;;23.30;38.40
39197;BME280;42889;51.112;13.772;2022-09-03T15:05:06;99083.94;;;23.02;37.62
39197;BME280;42889;51.112;13.772;2022-09-03T15:08:00;99083.31;;;23.12;40.47
39197;BME280;42889;51.112;13.772;2022-09-03T15:10:59;99080.13;;;23.03;37.50
39197;BME280;42889;51.112;13.772;2022-09-03T15:13:30;99089.06;;;22.87;39.88
39197;BME280;42889;51.112;13.772;2022-09-03T15:16:30;99082.25;;;22.66;40.01
39197;BME280;42889;51.112;13.772;2022-09-03T15:19:10;99087.88;;;22.59;39.00
39197;BME280;42889;51.112;13.772;2022-09-03T15:24:42;99077.25;;;22.51;39.52
39197;BME280;42889;51.112;13.772;2022-09-03T15:27:28;99082.13;;;22.61;40.14
39197;BME280;42889;51.112;13.772;2022-09-03T15:30:17;99077.94;;;22.35;37.89
39197;BME280;42889;51.112;13.772;2022-09-03T15:35:35;99086.06;;;22.00;38.56
39197;BME280;42889;51.112;13.772;2022-09-03T15:40:56;99077.44;;;21.84;38.67
39197;BME280;42889;51.112;13.772;2022-09-03T15:43:31;99071.47;;;21.76;40.85
39197;BME280;42889;51.112;13.772;2022-09-03T15:46:02;99082.06;;;21.72;38.95
39197;BME280;42889;51.112;13.772;2022-09-03T15:49:02;99084.56;;;21.74;38.01
39197;BME280;42889;51.112;13.772;2022-09-03T15:51:35;99089.59;;;21.58;40.62
39197;BME280;42889;51.112;13.772;2022-09-03T15:57:12;99087.59;;;21.54;39.34
39197;BME280;42889;51.112;13.772;2022-09-03T16:00:22;99095.28;;;21.45;39.55
39197;BME280;42889;51.112;13.772;2022-09-03T16:03:00;99091.16;;;21.36;40.36
39197;BME280;42889;51.112;13.772;2022-09-03T16:05:54;99096.88;;;21.16;39.56
39197;BME280;42889;51.112;13.772;2022-09-03T16:14:30;99097.25;;;21.01;41.37
39197;BME280;42889;51.112;13.772;2022-09-03T16:19:38;99092.84;;;21.00;40.76
39197;BME280;42889;51.112;13.772;2022-09-03T16:22:21;99094.59;;;20.95;41.19
39197;BME280;42889;51.112;13.772;2022-09-03T16:25:02;99096.25;;;20.96;41.14